Nearby METAR Reports

 

KHOB - Hobbs, New Mexico, USA
Distance from station: S 40mi, 65km
Updated: Fri, 22-Jun-2018 9:55pm MDT
Clear
Clear
 Wind from S
Wind: S 20 mph , 31 km/h, Gust: 26 mph , 43 km/h
Temperature: 84°F , 29°C
Dew Point: 52°F , 11°C
Humidity: 33%
Barometer: 29.80 inHg , 1009.1 hPa
Clouds: Clear
Visibility: 10 miles , 16 km
2018/06/23 03:55 KHOB 230355Z AUTO 18017G23KT 10SM CLR 29/11 A2980 RMK AO2
KGNC - Seminole, Texas, USA
Distance from station: SE 55mi, 89km
Updated: Fri, 22-Jun-2018 9:55pm MDT
Clear
Clear
 Wind from S
Wind: S 17 mph , 28 km/h, Gust: 23 mph , 37 km/h
Temperature: 84°F , 29°C
Dew Point: 55°F , 13°C
Humidity: 37%
Barometer: 29.80 inHg , 1009.1 hPa
Clouds: Clear
Visibility: 10 miles , 16 km
2018/06/23 03:55 KGNC 230355Z AUTO 18015G20KT 10SM CLR 29/13 A2980 RMK AO2 T02930128
 
KROW - Roswell, New Mexico, USA
Distance from station: W 67mi, 108km
Updated: Fri, 22-Jun-2018 9:51pm MDT
Clear
Clear
 Wind from S
Wind: S 17 mph , 28 km/h
Temperature: 90°F , 32°C
Dew Point: 45°F , 7°C
Humidity: 21%
Barometer: 29.74 inHg , 1007.1 hPa
Clouds: Clear
Visibility: 10 miles , 16 km
2018/06/23 03:51 KROW 230351Z AUTO 18015KT 10SM CLR 32/07 A2974 RMK AO2 PK WND 17027/0340 SLP989 T03220067
KATS - Artesia, New Mexico, USA
Distance from station: WSW 71mi, 114km
Updated: Fri, 22-Jun-2018 9:55pm MDT
Clear
Clear
 Wind from SSE
Wind: SSE 21 mph , 33 km/h
Temperature: 91°F , 33°C
Dew Point: 45°F , 7°C
Humidity: 20%
Barometer: 29.76 inHg , 1007.8 hPa
Clouds: Clear
Visibility: 10 miles , 16 km
2018/06/23 03:55 KATS 230355Z AUTO 16018KT 10SM CLR 33/07 A2976 RMK AO2
 
KCVS - Cannon AFB,Clovis, New Mexico, USA
Distance from station: 0 78mi, 125km
Updated: Fri, 22-Jun-2018 9:58pm MDT
Clear
Clear
 Wind from S
Wind: S 18 mph , 30 km/h, Gust: 25 mph , 41 km/h
Temperature: 86°F , 30°C
Dew Point: 46°F , 8°C
Humidity: 25%
Barometer: 29.81 inHg , 1009.5 hPa
Clouds: Clear
Visibility: 10 miles , 16 km
2018/06/23 03:58 KCVS 230358Z AUTO 19016G22KT 10SM CLR 30/08 A2981 RMK AO2 SLP017 T02950080 $
KE11 - Andrews, Texas, USA
Distance from station: SE 78mi, 126km
Updated: Fri, 22-Jun-2018 9:55pm MDT
Clear
Clear
 Wind from S
Wind: S 16 mph , 26 km/h, Gust: 21 mph , 33 km/h
Temperature: 84°F , 29°C
Heat Index: 84°F , 29°C
Dew Point: 59°F , 15°C
Humidity: 43%
Barometer: 29.80 inHg , 1009.1 hPa
Clouds: Clear
Visibility: 10 miles , 16 km
2018/06/23 03:55 KE11 230355Z AUTO 18014G18KT 10SM CLR 29/15 A2980 RMK AO2 T02900152
 
KCNM - Carlsbad, New Mexico, USA
Distance from station: SW 82mi, 132km
Updated: Fri, 22-Jun-2018 9:53pm MDT
Partly cloudy
Partly cloudy
 Wind from S
Wind: S 13 mph , 20 km/h
Temperature: 90°F , 32°C
Dew Point: 46°F , 8°C
Humidity: 22%
Barometer: 29.75 inHg , 1007.5 hPa
Clouds: Partly cloudy
Visibility: 10 miles , 16 km
Cloud details: Partly cloudy 12000 ft
2018/06/23 03:53 KCNM 230353Z AUTO 18011KT 10SM SCT120 32/08 A2975 RMK AO2 SLP004 T03170078
KCVN - Clovis Muni, New Mexico, USA
Distance from station: N 83mi, 133km
Updated: Fri, 22-Jun-2018 9:56pm MDT
Clear
Clear
 Wind from S
Wind: S 18 mph , 30 km/h
Temperature: 82°F , 28°C
Dew Point: 48°F , 9°C
Humidity: 30%
Barometer: 29.80 inHg , 1009.1 hPa
Clouds: Clear
Visibility: 10 miles , 16 km
2018/06/23 03:56 KCVN 230356Z AUTO 19016KT 10SM CLR 28/09 A2980 RMK AO2 SLPNO T02780094
 
KLBB - Lubbock, Texas, USA
Distance from station: ENE 92mi, 149km
Updated: Fri, 22-Jun-2018 9:53pm MDT
Mostly cloudy
Mostly cloudy
 Wind from E
Wind: E 10 mph , 17 km/h
Temperature: 88°F , 31°C
Dew Point: 48°F , 9°C
Humidity: 25%
Barometer: 29.78 inHg , 1008.5 hPa
Clouds: Mostly cloudy
Visibility: 10 miles , 16 km
Cloud details: Mostly cloudy 17000 ft
Mostly cloudy 25000 ft
2018/06/23 03:53 KLBB 230353Z 09009KT 10SM BKN170 BKN250 31/09 A2978 RMK AO2 SLP022 T03060089
KINK - Wink, Texas, USA
Distance from station: S 101mi, 163km
Updated: Fri, 22-Jun-2018 9:53pm MDT
Clear
Clear
 Wind from SSE
Wind: SSE 21 mph , 33 km/h, Gust: 26 mph , 43 km/h
Temperature: 88°F , 31°C
Heat Index: 89°F , 32°C
Dew Point: 63°F , 17°C
Humidity: 43%
Barometer: 29.76 inHg , 1007.8 hPa
Clouds: Clear
Visibility: 10 miles , 16 km
2018/06/23 03:53 KINK 230353Z AUTO 16018G23KT 10SM CLR 31/17 A2976 RMK AO2 SLP024 T03060167
 
KMAF - Midland, Texas, USA
Distance from station: SE 111mi, 179km
Updated: Fri, 22-Jun-2018 9:53pm MDT
Clear
Clear
 Wind from S
Wind: S 22 mph , 35 km/h
Temperature: 88°F , 31°C
Heat Index: 89°F , 32°C
Dew Point: 63°F , 17°C
Humidity: 43%
Barometer: 29.80 inHg , 1009.1 hPa
Clouds: Clear
Visibility: 10 miles , 16 km
2018/06/23 03:53 KMAF 230353Z 17019KT 10SM CLR 31/17 A2980 RMK AO2 PK WND 17028/0319 SLP035 T03110167
KSRR - Sierra B/Ruidoso, New Mexico, USA
Distance from station: W 127mi, 204km
Updated: Fri, 22-Jun-2018 9:35pm MDT
Clear
Clear
 Wind from SSW
Wind: SSW 12 mph , 19 km/h
Temperature: 79°F , 26°C
Dew Point: 16°F , -9°C
Humidity: 9%
Barometer: 30.06 inHg , 1017.9 hPa
Clouds: Clear
Visibility: 10 miles , 16 km
2018/06/23 03:35 KSRR 230335Z AUTO 21010KT 10SM CLR 26/M09 A3006 RMK AO2
 
KGDP - Guadalupe Pass, Texas, USA
Distance from station: SW 130mi, 209km
Updated: Fri, 22-Jun-2018 9:51pm MDT
Clear
Clear
 Wind from SW
Wind: SW 18 mph , 30 km/h
Temperature: 88°F , 31°C
Dew Point: 36°F , 2°C
Humidity: 16%
Barometer: 29.97 inHg , 1014.9 hPa
Clouds: Clear
Visibility: 10 miles , 16 km
2018/06/23 03:51 KGDP 230351Z AUTO 22016KT 10SM CLR 31/02 A2997 RMK AO2 SLP042 T03110022